Nearby METAR Reports

 

KTTN - Trenton/Mercer Arpt, New Jersey, USA
Distance from station: N 4mi, 6km
Updated: Tue, 23-Jul-2024 12:53am EDT
Overcast
Overcast
 Wind from NE
Wind: NE 3 mph, 6 km/h
Temperature: 72°F, 22°C
Dew Point: 68°F, 20°C
Humidity: 88%
Barometer: 29.97 inHg, 1014.9 hPa
Clouds: Overcast
Visibility: 10 miles, 16 km
Cloud details: Few Clouds 2700 ft
Mostly cloudy 3600 ft
Overcast 5000 ft
2024/07/23 04:53 KTTN 230453Z AUTO 04003KT 10SM FEW027 BKN036 OVC050 22/20 A2997 RMK AO2 SLP140 T02170200 402890211
KPNE - Philadelphia/NE Arpt, Pennsylvania, USA
Distance from station: SW 15mi, 23km
Updated: Tue, 23-Jul-2024 12:54am EDT
Overcast
Overcast
 Wind from calm
Wind: Calm
Temperature: 73°F, 23°C
Dew Point: 68°F, 20°C
Humidity: 83%
Barometer: 29.98 inHg, 1015.2 hPa
Clouds: Overcast
Visibility: 10 miles, 16 km
Cloud details: Mostly cloudy 2900 ft
Overcast 3700 ft
2024/07/23 04:54 KPNE 230454Z 00000KT 10SM BKN029 OVC037 23/20 A2998 RMK AO2 SLP151 T02330200 402890200
KDYL - Doylestown Arpt, Pennsylvania, USA
Distance from station: WNW 18mi, 29km
Updated: Tue, 23-Jul-2024 12:54am EDT
Overcast
Overcast
 Wind from calm
Wind: Calm
Temperature: 72°F, 22°C
Dew Point: 68°F, 20°C
Humidity: 88%
Barometer: 29.98 inHg, 1015.2 hPa
Clouds: Overcast
Visibility: 10 miles, 16 km
Cloud details: Overcast 3800 ft
2024/07/23 04:54 KDYL 230454Z AUTO 00000KT 10SM OVC038 22/20 A2998 RMK AO2 SLP146 T02170200 402830211
 
KWRI - McGuire AFB, New Jersey, USA
Distance from station: SE 18mi, 29km
Updated: Tue, 23-Jul-2024 12:55am EDT
Overcast
Overcast
 Wind from calm
Wind: Calm
Temperature: 72°F, 22°C
Dew Point: 72°F, 22°C
Humidity: 100%
Barometer: 29.96 inHg, 1014.6 hPa
Clouds: Overcast
Visibility: 10 miles, 16 km
Cloud details: Mostly cloudy 2700 ft
Overcast 3500 ft
2024/07/23 04:55 KWRI 230455Z 00000KT 10SM BKN027 OVC035 22/22 A2996 RMK AO2A SLP144 T02240215 402930201 $
KVAY - Mount Holly/S Jersey Rgnl, New Jersey, USA
Distance from station: S 19mi, 31km
Updated: Tue, 23-Jul-2024 12:54am EDT
Mostly cloudy
Mostly cloudy
 Wind from calm
Wind: Calm
Temperature: 73°F, 23°C
Dew Point: 70°F, 21°C
Humidity: 89%
Barometer: 29.97 inHg, 1014.9 hPa
Clouds: Mostly cloudy
Visibility: 10 miles, 16 km
Cloud details: Mostly cloudy 2400 ft
Mostly cloudy 3600 ft
2024/07/23 04:54 KVAY 230454Z AUTO 00000KT 10SM BKN024 BKN036 23/21 A2997 RMK AO2 SLP149 T02280211 402890200
KLOM - Philadelphia/Wings Field Arpt, Pennsylvania, USA
Distance from station: WSW 25mi, 40km
Updated: Tue, 23-Jul-2024 12:35am EDT
Overcast
Overcast
 Wind from calm
Wind: Calm
Temperature: 70°F, 21°C
Dew Point: 70°F, 21°C
Humidity: 100%
Barometer: 29.99 inHg, 1015.6 hPa
Clouds: Overcast
Visibility: 10 miles, 16 km
Cloud details: Mostly cloudy 2600 ft
Overcast 3100 ft
2024/07/23 04:35 KLOM 230435Z AUTO 00000KT 10SM BKN026 OVC031 21/21 A2999 RMK AO2 T02140213
 
KCKZ - Perkasie/Pennridge Arpt, Pennsylvania, USA
Distance from station: WNW 28mi, 45km
Updated: Tue, 23-Jul-2024 12:55am EDT
Mist, Mostly cloudy
Mist, Mostly cloudy
 Wind from calm
Wind: Calm
Temperature: 68°F, 20°C
Dew Point: 68°F, 20°C
Humidity: 100%
Barometer: 29.99 inHg, 1015.6 hPa
Summary: Mist
Clouds: Mostly cloudy
Visibility: 3 miles, 5 km
Cloud details: Mostly cloudy 3000 ft
Mostly cloudy 3800 ft
2024/07/23 04:55 KCKZ 230455Z AUTO 00000KT 3SM BR BKN030 BKN038 20/20 A2999 RMK AO2
KNEL - Lakehurst(NAS), New Jersey, USA
Distance from station: ESE 29mi, 46km
Updated: Tue, 23-Jul-2024 12:00am EDT
Overcast
Overcast
 Wind from ESE
Wind: ESE 3 mph, 6 km/h
Temperature: 73°F, 23°C
Dew Point: 72°F, 22°C
Humidity: 94%
Barometer: 29.96 inHg, 1014.6 hPa
Clouds: Overcast
Cloud details: Few Clouds 800 ft
Overcast 2800 ft
2024/07/23 04:00 KNEL 230400Z AUTO 11003KT FEW008 OVC028 23/22 A2996 RMK AO2 SLP143 T02330222 $
KSMQ - Somerville/Somerset Arpt, New Jersey, USA
Distance from station: NNE 29mi, 46km
Updated: Tue, 23-Jul-2024 12:53am EDT
Overcast
Overcast
 Wind from calm
Wind: Calm
Temperature: 72°F, 22°C
Dew Point: 72°F, 22°C
Humidity: 100%
Barometer: 29.95 inHg, 1014.2 hPa
Clouds: Overcast
Visibility: 7 miles, 11 km
Cloud details: Few Clouds 3900 ft
Overcast 4700 ft
2024/07/23 04:53 KSMQ 230453Z AUTO 00000KT 7SM FEW039 OVC047 22/22 A2995 RMK AO2 SLP141 P0001 T02220217 402890194
 
KPHL - Philadelphia Intl, Pennsylvania, USA
Distance from station: SW 33mi, 52km
Updated: Tue, 23-Jul-2024 12:54am EDT
Light rain, Overcast
Light rain, Overcast
 Wind from calm
Wind: Calm
Temperature: 75°F, 24°C
Dew Point: 68°F, 20°C
Humidity: 78%
Barometer: 29.98 inHg, 1015.2 hPa
Summary: Light rain
Clouds: Overcast
Visibility: 10 miles, 16 km
Cloud details: Mostly cloudy 1900 ft
Overcast 3300 ft
2024/07/23 04:54 KPHL 230454Z 00000KT 10SM -RA BKN019 OVC033 24/20 A2998 RMK AO2 RAB47 SLP150 P0000 T02390200 402890228
KUKT - Quakertown Arpt, Pennsylvania, USA
Distance from station: WNW 33mi, 54km
Updated: Tue, 23-Jul-2024 12:55am EDT
Light drizzle, Partly cloudy
Light drizzle, Partly cloudy
 Wind from calm
Wind: Calm
Temperature: 70°F, 21°C
Dew Point: 70°F, 21°C
Humidity: 100%
Barometer: 29.99 inHg, 1015.6 hPa
Summary: Light Drizzle
Clouds: Partly cloudy
Visibility: 7 miles, 11 km
Cloud details: Partly cloudy 3200 ft
2024/07/23 04:55 KUKT 230455Z AUTO 00000KT 7SM -DZ SCT032 21/21 A2999 RMK AO2 P0001
KMJX - Toms River/Miller Arpt, New Jersey, USA
Distance from station: SE 34mi, 55km
Updated: Tue, 23-Jul-2024 12:56am EDT
Overcast
Overcast
 Wind from calm
Wind: Calm
Temperature: 72°F, 22°C
Dew Point: 72°F, 22°C
Humidity: 100%
Barometer: 29.98 inHg, 1015.2 hPa
Clouds: Overcast
Visibility: 10 miles, 16 km
Cloud details: Overcast 1900 ft
2024/07/23 04:56 KMJX 230456Z AUTO 00000KT 10SM OVC019 22/22 A2998 RMK AO2 SLP155 T02220217 402940194
 
KBLM - Farmingdale/Monmouth Exec, New Jersey, USA
Distance from station: E 37mi, 59km
Updated: Tue, 23-Jul-2024 12:56am EDT
Overcast
Overcast
 Wind from calm
Wind: Calm
Temperature: 72°F, 22°C
Dew Point: 72°F, 22°C
Humidity: 100%
Barometer: 29.99 inHg, 1015.6 hPa
Clouds: Overcast
Visibility: 10 miles, 16 km
Cloud details: Mostly cloudy 2300 ft
Overcast 2900 ft
2024/07/23 04:56 KBLM 230456Z AUTO 00000KT 10SM BKN023 OVC029 22/22 A2999 RMK AO2 RAE40 SLP153 P0000 T02220217 402830206
KPTW - Pottstown/Heritage Fld, Pennsylvania, USA
Distance from station: W 39mi, 63km
Updated: Tue, 23-Jul-2024 12:54am EDT
Rain, Mist, Mostly cloudy
Rain, Mist, Mostly cloudy
 Wind from calm
Wind: Calm
Temperature: 72°F, 22°C
Dew Point: 70°F, 21°C
Humidity: 94%
Barometer: 30.00 inHg, 1015.9 hPa
Summary: Rain, Mist
Clouds: Mostly cloudy
Visibility: 3 miles, 5 km
Cloud details: Few Clouds 3000 ft
Mostly cloudy 9500 ft
Mostly cloudy 12000 ft
2024/07/23 04:54 KPTW 230454Z AUTO 00000KT 3SM RA BR FEW030 BKN095 BKN120 22/21 A3000 RMK AO2 RAB25 SLP153 P0004 T02170206 402830194
KLDJ - Linden Arpt, New Jersey, USA
Distance from station: NE 40mi, 65km
Updated: Wed, 03-Jul-2024 9:55pm EDT
NOT Current
Clear
Clear
 Wind from SW
Wind: SW 5 mph, 7 km/h
Temperature: 73°F, 23°C
Dew Point: 50°F, 10°C
Humidity: 44%
Barometer: 30.08 inHg, 1018.6 hPa
Clouds: Clear
Visibility: 10 miles, 16 km
2024/07/04 01:55 KLDJ 040155Z AUTO 23004KT 10SM CLR 23/10 A3008 RMK AO2 T02320103
 
KXLL - Allentown/Queen City, Pennsylvania, USA
Distance from station: NW 43mi, 69km
Updated: Tue, 23-Jul-2024 12:35am EDT
Clear
Clear
 Wind from calm
Wind: Calm
Temperature: 72°F, 22°C
Dew Point: 68°F, 20°C
Humidity: 88%
Barometer: 29.99 inHg, 1015.6 hPa
Clouds: Clear
Visibility: 10 miles, 16 km
2024/07/23 04:35 KXLL 230435Z AUTO 00000KT 10SM CLR 22/20 A2999 RMK AO2 LTG DSNT S
KOQN - West Chester/Brandywine Rgnl, Pennsylvania, USA
Distance from station: WSW 44mi, 70km
Updated: Tue, 23-Jul-2024 12:55am EDT
Rain, Clear
Rain, Clear
 Wind from calm
Wind: Calm
Temperature: 70°F, 21°C
Dew Point: 68°F, 20°C
Humidity: 94%
Barometer: 30.00 inHg, 1015.9 hPa
Summary: Rain
Clouds: Clear
Visibility: 7 miles, 11 km
2024/07/23 04:55 KOQN 230455Z AUTO 00000KT 7SM RA CLR 21/20 A3000 RMK AO2 P0002
KABE - Allentown/Lehigh Valley Intl, Pennsylvania, USA
Distance from station: NW 45mi, 72km
Updated: Tue, 23-Jul-2024 12:51am EDT
Light rain, Mostly cloudy
Light rain, Mostly cloudy
 Wind from calm
Wind: Calm
Temperature: 72°F, 22°C
Dew Point: 66°F, 19°C
Humidity: 83%
Barometer: 29.98 inHg, 1015.2 hPa
Summary: Light rain
Clouds: Mostly cloudy
Visibility: 10 miles, 16 km
Cloud details: Partly cloudy 2200 ft
Mostly cloudy 11000 ft
2024/07/23 04:51 KABE 230451Z 00000KT 10SM -RA SCT022 BKN110 22/19 A2998 RMK AO2 RAB44 SLP148 P0000 T02220189 402830183 $
 
KMMU - Morristown Muni, New Jersey, USA
Distance from station: NNE 45mi, 72km
Updated: Tue, 23-Jul-2024 12:35am EDT
Overcast
Overcast
 Wind from calm
Wind: Calm
Temperature: 73°F, 23°C
Dew Point: 72°F, 22°C
Humidity: 94%
Barometer: 29.98 inHg, 1015.2 hPa
Clouds: Overcast
Visibility: 10 miles, 16 km
Cloud details: Partly cloudy 4000 ft
Partly cloudy 4600 ft
Overcast 5000 ft
2024/07/23 04:35 KMMU 230435Z AUTO 00000KT 10SM SCT040 SCT046 OVC050 23/22 A2998 RMK AO2
KEWR - Newark Intl, New Jersey, USA
Distance from station: NE 46mi, 75km
Updated: Tue, 23-Jul-2024 12:51am EDT
Overcast
Overcast
 Wind from calm
Wind: Calm
Temperature: 73°F, 23°C
Dew Point: 70°F, 21°C
Humidity: 89%
Barometer: 29.97 inHg, 1014.9 hPa
Clouds: Overcast
Visibility: 10 miles, 16 km
Cloud details: Few Clouds 1000 ft
Partly cloudy 1900 ft
Overcast 3800 ft
2024/07/23 04:51 KEWR 230451Z 00000KT 10SM FEW010 SCT019 OVC038 23/21 A2997 RMK AO2 RAB03E48 SLP148 P0002 T02330211 402940233 $